createdAt,value
2023-03-28T00:00:35.495Z,101383.75
2023-03-28T00:03:03.198Z,101381.09
2023-03-28T00:05:31.424Z,101387.31
2023-03-28T00:07:59.884Z,101383.94
2023-03-28T00:10:29.236Z,101384.81
2023-03-28T00:12:56.905Z,101391.75
2023-03-28T00:15:26.436Z,101396.22
2023-03-28T00:17:54.199Z,101398.94
2023-03-28T00:20:21.854Z,101401.56
2023-03-28T00:22:50.973Z,101397.25
2023-03-28T00:25:19.415Z,101401.75
2023-03-28T00:27:48.594Z,101403.34
2023-03-28T00:30:16.349Z,101410.19
2023-03-28T00:32:44.019Z,101410.19
2023-03-28T00:35:12.692Z,101415.44
2023-03-28T00:37:41.823Z,101410.25
2023-03-28T00:40:11.251Z,101408.56
2023-03-28T00:42:43.037Z,101408.38
2023-03-28T00:45:13.198Z,101417.22
2023-03-28T00:47:44.725Z,101413.75
2023-03-28T00:50:20.131Z,101417.44
2023-03-28T00:52:54.486Z,101423.56
2023-03-28T00:55:27.308Z,101421.88
2023-03-28T00:57:55.794Z,101416.72
2023-03-28T01:00:25.906Z,101415.00
2023-03-28T01:02:56.080Z,101408.78
2023-03-28T01:05:29.910Z,101421.16
2023-03-28T01:08:03.900Z,101418.75
2023-03-28T01:10:33.416Z,101418.78
2023-03-28T01:13:03.190Z,101418.66
2023-03-28T01:15:33.813Z,101417.91
2023-03-28T01:18:03.078Z,101407.72
2023-03-28T01:21:03.309Z,101422.78
2023-03-28T01:24:15.370Z,101417.69
2023-03-28T01:26:53.733Z,101422.22
2023-03-28T01:30:02.397Z,101422.25
2023-03-28T01:32:55.646Z,101423.22
2023-03-28T01:35:51.132Z,101426.69
2023-03-28T01:38:25.095Z,101430.19
2023-03-28T01:41:00.168Z,101426.66
2023-03-28T01:43:35.868Z,101424.03
2023-03-28T01:46:10.790Z,101427.56
2023-03-28T01:48:47.996Z,101439.78
2023-03-28T01:51:25.425Z,101439.84
2023-03-28T01:54:01.750Z,101443.34
2023-03-28T01:56:36.101Z,101447.75
2023-03-28T01:59:10.555Z,101444.31
2023-03-28T02:01:46.627Z,101439.00
2023-03-28T02:04:21.411Z,101444.31
2023-03-28T02:06:52.697Z,101439.22
2023-03-28T02:09:24.908Z,101436.72
2023-03-28T02:11:58.687Z,101441.97
2023-03-28T02:14:30.859Z,101437.44
2023-03-28T02:17:06.327Z,101440.03
2023-03-28T02:19:37.942Z,101434.66
2023-03-28T02:22:12.454Z,101440.88
2023-03-28T02:24:41.581Z,101440.88
2023-03-28T02:27:09.523Z,101436.53
2023-03-28T02:29:39.167Z,101429.47
2023-03-28T02:32:07.205Z,101421.53
2023-03-28T02:34:35.282Z,101427.78
2023-03-28T02:37:16.938Z,101426.22
2023-03-28T02:39:59.232Z,101434.94
2023-03-28T02:42:49.420Z,101428.16
2023-03-28T02:45:31.129Z,101430.19
2023-03-28T02:48:07.890Z,101432.91
2023-03-28T02:50:40.795Z,101432.22
2023-03-28T02:53:12.389Z,101430.56
2023-03-28T02:55:55.040Z,101431.63
2023-03-28T02:58:29.619Z,101426.38
2023-03-28T03:00:57.667Z,101435.22
2023-03-28T03:03:25.879Z,101427.44
2023-03-28T03:05:54.246Z,101429.13
2023-03-28T03:08:24.050Z,101435.25
2023-03-28T03:10:53.091Z,101436.13
2023-03-28T03:13:21.077Z,101437.88
2023-03-28T03:15:49.411Z,101430.91
2023-03-28T03:18:17.474Z,101432.59
2023-03-28T03:20:45.764Z,101426.47
2023-03-28T03:23:13.882Z,101429.25
2023-03-28T03:25:43.146Z,101426.56
2023-03-28T03:28:12.921Z,101430.06
2023-03-28T03:30:40.582Z,101424.81
2023-03-28T03:33:10.261Z,101423.69
2023-03-28T03:35:38.097Z,101426.28
2023-03-28T03:38:05.861Z,101417.50
2023-03-28T03:40:33.516Z,101421.06
2023-03-28T03:43:01.250Z,101425.50
2023-03-28T03:45:30.195Z,101417.97
2023-03-28T03:47:57.857Z,101423.38
2023-03-28T03:50:25.604Z,101426.91
2023-03-28T03:52:53.242Z,101424.25
2023-03-28T03:55:20.953Z,101425.16
2023-03-28T03:57:48.644Z,101432.22
2023-03-28T04:00:18.873Z,101438.44
2023-03-28T04:02:48.360Z,101435.00
2023-03-28T04:05:16.404Z,101439.25
2023-03-28T04:07:44.045Z,101448.84
2023-03-28T04:10:12.138Z,101450.53
2023-03-28T04:12:39.791Z,101448.78
2023-03-28T04:15:08.453Z,101448.75
2023-03-28T04:17:37.848Z,101446.16
2023-03-28T04:20:12.238Z,101449.75
2023-03-28T04:22:45.483Z,101443.53
2023-03-28T04:25:14.745Z,101451.28
2023-03-28T04:27:47.359Z,101453.09
2023-03-28T04:30:18.110Z,101454.91
2023-03-28T04:32:49.610Z,101455.72
2023-03-28T04:35:18.872Z,101459.34
2023-03-28T04:37:47.438Z,101464.72
2023-03-28T04:40:17.774Z,101458.69
2023-03-28T04:42:46.533Z,101462.22
2023-03-28T04:45:16.456Z,101468.28
2023-03-28T04:47:46.072Z,101464.88
2023-03-28T04:50:14.088Z,101471.88
2023-03-28T04:52:43.090Z,101473.69
2023-03-28T04:55:11.209Z,101472.03
2023-03-28T04:57:38.933Z,101468.56
2023-03-28T05:00:10.251Z,101472.81
2023-03-28T05:02:38.164Z,101475.38
2023-03-28T05:05:07.548Z,101481.59
2023-03-28T05:07:35.624Z,101485.19
2023-03-28T05:10:06.195Z,101486.19
2023-03-28T05:12:33.833Z,101495.81
2023-03-28T05:15:01.546Z,101493.22
2023-03-28T05:17:29.195Z,101490.56
2023-03-28T05:19:56.975Z,101493.22
2023-03-28T05:22:24.621Z,101500.09
2023-03-28T05:24:52.279Z,101505.22
2023-03-28T05:27:21.735Z,101498.25
2023-03-28T05:29:49.427Z,101502.53
2023-03-28T05:32:17.110Z,101506.97
2023-03-28T05:34:44.793Z,101506.19
2023-03-28T05:37:12.500Z,101508.75
2023-03-28T05:39:40.332Z,101509.56
2023-03-28T05:42:08.840Z,101516.59
2023-03-28T05:44:37.943Z,101518.31
2023-03-28T05:47:05.813Z,101516.53
2023-03-28T05:49:33.833Z,101524.47
2023-03-28T05:52:01.498Z,101519.16
2023-03-28T05:54:29.192Z,101525.31
2023-03-28T05:56:57.208Z,101522.47
2023-03-28T05:59:25.217Z,101530.19
2023-03-28T06:01:55.484Z,101535.28
2023-03-28T06:04:23.746Z,101538.72
2023-03-28T06:06:51.724Z,101535.13
2023-03-28T06:09:19.921Z,101533.28
2023-03-28T06:11:47.594Z,101539.34
2023-03-28T06:14:18.500Z,101535.75
2023-03-28T06:16:47.756Z,101536.53
2023-03-28T06:19:18.674Z,101531.22
2023-03-28T06:21:46.693Z,101530.19
2023-03-28T06:24:14.515Z,101534.44
2023-03-28T06:26:42.478Z,101537.75
2023-03-28T06:29:10.354Z,101544.66
2023-03-28T06:31:38.111Z,101539.19
2023-03-28T06:34:05.932Z,101542.47
2023-03-28T06:36:34.929Z,101543.19
2023-03-28T06:39:02.650Z,101547.28
2023-03-28T06:41:30.619Z,101544.31
2023-03-28T06:43:58.554Z,101543.13
2023-03-28T06:46:26.491Z,101544.59
2023-03-28T06:48:54.283Z,101546.06
2023-03-28T06:51:21.974Z,101548.44
2023-03-28T06:53:51.030Z,101551.41
2023-03-28T06:56:18.790Z,101551.00
2023-03-28T06:58:46.481Z,101552.28
2023-03-28T07:01:14.408Z,101552.56
2023-03-28T07:03:42.195Z,101556.19
2023-03-28T07:06:11.361Z,101562.72
2023-03-28T07:08:40.515Z,101562.94
2023-03-28T07:11:09.790Z,101564.31
2023-03-28T07:13:37.801Z,101566.28
2023-03-28T07:16:07.705Z,101556.63
2023-03-28T07:18:35.496Z,101550.44
2023-03-28T07:21:07.599Z,101559.59
2023-03-28T07:23:35.446Z,101556.25
2023-03-28T07:26:03.499Z,101566.00
2023-03-28T07:28:35.448Z,101564.47
2023-03-28T07:31:04.726Z,101574.50
2023-03-28T07:33:37.131Z,101578.22
2023-03-28T07:36:11.571Z,101577.34
2023-03-28T07:38:39.419Z,101579.47
2023-03-28T07:41:08.054Z,101587.50
2023-03-28T07:43:38.689Z,101581.47
2023-03-28T07:46:08.625Z,101587.00
2023-03-28T07:48:36.793Z,101591.34
2023-03-28T07:51:06.203Z,101597.72
2023-03-28T07:53:34.212Z,101590.56
2023-03-28T07:56:02.508Z,101593.31
2023-03-28T07:58:30.581Z,101595.81
2023-03-28T08:01:05.148Z,101600.75
2023-03-28T08:03:33.032Z,101601.13
2023-03-28T08:06:02.829Z,101605.78
2023-03-28T08:08:31.662Z,101605.19
2023-03-28T08:10:59.697Z,101601.69
2023-03-28T08:13:27.620Z,101596.38
2023-03-28T08:15:57.117Z,101599.19
2023-03-28T08:18:26.493Z,101597.78
2023-03-28T08:21:01.062Z,101601.00
2023-03-28T08:23:29.480Z,101596.94
2023-03-28T08:29:37.655Z,101604.38
2023-03-28T08:32:06.472Z,101597.19
2023-03-28T08:34:35.552Z,101610.13
2023-03-28T08:37:05.562Z,101604.47
2023-03-28T08:39:34.751Z,101610.41
2023-03-28T08:42:33.190Z,101611.19
2023-03-28T08:45:38.980Z,101615.88
2023-03-28T08:48:16.261Z,101612.41
2023-03-28T08:50:49.103Z,101616.91
2023-03-28T08:53:24.443Z,101617.66
2023-03-28T08:55:54.225Z,101616.31
2023-03-28T08:58:23.465Z,101607.56
2023-03-28T09:00:52.808Z,101613.72
2023-03-28T09:03:22.954Z,101613.56
2023-03-28T09:05:54.718Z,101609.88
2023-03-28T09:08:52.081Z,101610.06
2023-03-28T09:11:35.687Z,101605.75
2023-03-28T09:14:20.326Z,101605.44
2023-03-28T09:17:04.036Z,101608.41
2023-03-28T09:19:48.819Z,101607.88
2023-03-28T09:22:28.968Z,101598.84
2023-03-28T09:25:18.646Z,101602.78
2023-03-28T09:27:56.146Z,101603.50
2023-03-28T09:30:28.450Z,101596.75
2023-03-28T09:33:00.220Z,101603.22
2023-03-28T09:35:29.855Z,101592.69
2023-03-28T09:38:03.485Z,101585.81
2023-03-28T09:40:33.454Z,101583.41
2023-03-28T09:43:09.930Z,101586.50
2023-03-28T09:45:46.468Z,101581.00
2023-03-28T09:48:20.120Z,101578.94
2023-03-28T09:50:48.145Z,101586.19
2023-03-28T09:53:23.203Z,101575.50
2023-03-28T09:56:03.360Z,101582.50
2023-03-28T09:58:49.241Z,101584.09
2023-03-28T10:01:38.430Z,101585.19
2023-03-28T10:04:12.394Z,101578.19
2023-03-28T10:06:41.682Z,101576.22
2023-03-28T10:09:18.222Z,101582.09
2023-03-28T10:11:51.066Z,101579.31
2023-03-28T10:14:36.516Z,101576.88
2023-03-28T10:17:07.483Z,101573.94
2023-03-28T10:19:38.151Z,101571.16
2023-03-28T10:22:08.923Z,101563.13
2023-03-28T10:24:39.768Z,101560.25
2023-03-28T10:27:13.204Z,101559.03
2023-03-28T10:29:41.594Z,101549.41
2023-03-28T10:32:13.359Z,101554.47
2023-03-28T10:34:41.652Z,101559.81
2023-03-28T10:37:27.245Z,101554.72
2023-03-28T10:40:06.785Z,101549.03
2023-03-28T10:42:42.487Z,101547.97
2023-03-28T10:45:21.969Z,101546.75
2023-03-28T10:47:51.672Z,101552.63
2023-03-28T10:50:27.429Z,101544.03
2023-03-28T10:53:11.464Z,101547.84
2023-03-28T10:55:52.036Z,101539.81
2023-03-28T10:58:27.320Z,101537.25
2023-03-28T11:01:02.771Z,101531.56
2023-03-28T11:03:43.167Z,101534.09
2023-03-28T11:06:21.386Z,101526.88
2023-03-28T11:09:01.859Z,101523.91
2023-03-28T11:11:42.538Z,101524.25
2023-03-28T11:14:21.157Z,101517.69
2023-03-28T11:16:59.214Z,101511.91
2023-03-28T11:19:45.439Z,101507.56
2023-03-28T11:22:23.698Z,101513.94
2023-03-28T11:25:00.325Z,101506.94
2023-03-28T11:27:34.811Z,101499.09
2023-03-28T11:30:06.714Z,101503.25
2023-03-28T11:32:41.833Z,101497.41
2023-03-28T11:35:17.695Z,101498.69
2023-03-28T11:37:51.724Z,101491.78
2023-03-28T11:40:24.324Z,101484.59
2023-03-28T11:42:58.217Z,101480.06
2023-03-28T11:45:46.690Z,101478.50
2023-03-28T11:48:22.634Z,101476.63
2023-03-28T11:50:54.771Z,101467.00
2023-03-28T11:53:27.870Z,101465.19
2023-03-28T11:56:02.855Z,101460.59
2023-03-28T11:58:37.180Z,101465.50
2023-03-28T12:01:11.284Z,101461.06
2023-03-28T12:03:49.027Z,101455.34
2023-03-28T12:06:23.449Z,101456.06
2023-03-28T12:08:58.250Z,101452.75
2023-03-28T12:11:32.638Z,101451.91
2023-03-28T12:14:12.789Z,101440.38
2023-03-28T12:16:46.791Z,101435.88
2023-03-28T12:19:18.448Z,101436.53
2023-03-28T12:21:51.353Z,101427.00
2023-03-28T12:24:26.988Z,101422.78
2023-03-28T12:27:04.054Z,101415.28
2023-03-28T12:29:41.646Z,101419.75
2023-03-28T12:32:27.775Z,101414.28
2023-03-28T12:35:01.901Z,101407.31
2023-03-28T12:37:33.693Z,101410.31
2023-03-28T12:40:12.950Z,101410.72
2023-03-28T12:42:42.243Z,101398.94
2023-03-28T12:45:17.576Z,101394.31
2023-03-28T12:47:49.796Z,101393.25
2023-03-28T12:50:23.528Z,101389.59
2023-03-28T12:52:53.811Z,101391.66
2023-03-28T12:55:44.941Z,101396.88
2023-03-28T12:58:20.458Z,101391.50
2023-03-28T13:00:57.004Z,101378.13
2023-03-28T13:03:35.481Z,101387.75
2023-03-28T13:06:12.887Z,101373.84
2023-03-28T13:09:00.190Z,101370.44
2023-03-28T13:11:39.006Z,101354.09
2023-03-28T13:14:33.179Z,101360.91
2023-03-28T13:17:03.474Z,101352.78
2023-03-28T13:19:47.914Z,101353.97
2023-03-28T13:22:32.217Z,101352.09
2023-03-28T13:25:28.334Z,101344.56
2023-03-28T13:27:57.817Z,101341.75
2023-03-28T13:30:28.702Z,101328.38
2023-03-28T13:33:00.783Z,101327.44
2023-03-28T13:35:43.705Z,101320.34
2023-03-28T13:38:15.456Z,101308.91
2023-03-28T13:40:48.213Z,101306.09
2023-03-28T13:43:24.251Z,101295.53
2023-03-28T13:45:54.377Z,101299.56
2023-03-28T13:48:25.853Z,101288.66
2023-03-28T13:50:54.452Z,101292.19
2023-03-28T13:53:21.981Z,101294.75
2023-03-28T13:56:07.369Z,101296.28
2023-03-28T13:58:35.083Z,101283.91
2023-03-28T14:01:09.398Z,101286.41
2023-03-28T14:03:39.644Z,101286.72
2023-03-28T14:06:13.014Z,101275.50
2023-03-28T14:08:45.985Z,101277.91
2023-03-28T14:11:14.121Z,101274.91
2023-03-28T14:13:41.646Z,101274.22
2023-03-28T14:16:10.508Z,101270.25
2023-03-28T14:18:42.622Z,101268.22
2023-03-28T14:21:10.431Z,101264.91
2023-03-28T14:23:39.104Z,101261.69
2023-03-28T14:26:08.250Z,101267.06
2023-03-28T14:28:40.226Z,101252.34
2023-03-28T14:31:12.532Z,101250.50
2023-03-28T14:33:41.956Z,101233.38
2023-03-28T14:36:17.428Z,101236.81
2023-03-28T14:38:45.466Z,101232.81
2023-03-28T14:41:19.214Z,101228.44
2023-03-28T14:43:48.763Z,101223.69
2023-03-28T14:46:16.430Z,101215.53
2023-03-28T14:48:45.714Z,101209.06
2023-03-28T14:51:14.371Z,101204.69
2023-03-28T14:53:43.205Z,101203.69
2023-03-28T14:56:13.280Z,101198.50
2023-03-28T14:58:43.507Z,101193.13
2023-03-28T15:01:12.233Z,101187.41
2023-03-28T15:03:41.572Z,101184.38
2023-03-28T15:06:15.350Z,101188.63
2023-03-28T15:08:44.641Z,101181.78
2023-03-28T15:11:15.436Z,101175.84
2023-03-28T15:13:44.169Z,101172.78
2023-03-28T15:16:16.834Z,101178.31
2023-03-28T15:18:46.958Z,101174.75
2023-03-28T15:21:16.473Z,101171.13
2023-03-28T15:23:46.412Z,101165.50
2023-03-28T15:26:20.025Z,101155.91
2023-03-28T15:28:48.100Z,101151.53
2023-03-28T15:31:17.146Z,101149.84
2023-03-28T15:33:46.726Z,101151.19
2023-03-28T15:36:16.424Z,101146.91
2023-03-28T15:38:45.753Z,101141.53
2023-03-28T15:41:20.338Z,101157.31
2023-03-28T15:44:08.602Z,101145.53
2023-03-28T15:46:37.085Z,101138.19
2023-03-28T15:49:06.190Z,101130.03
2023-03-28T15:51:37.790Z,101126.75
2023-03-28T15:56:41.183Z,101127.44
2023-03-28T15:59:12.363Z,101127.97
2023-03-28T16:01:40.015Z,101130.94
2023-03-28T16:04:22.567Z,101125.22
2023-03-28T16:06:53.520Z,101124.22
2023-03-28T16:09:23.166Z,101121.78
2023-03-28T16:11:52.817Z,101113.59
2023-03-28T16:14:21.259Z,101106.59
2023-03-28T16:16:53.924Z,101099.47
2023-03-28T16:19:22.446Z,101092.84
2023-03-28T16:21:50.032Z,101080.06
2023-03-28T16:24:17.796Z,101081.66
2023-03-28T16:26:46.831Z,101075.03
2023-03-28T16:29:14.339Z,101071.97
2023-03-28T16:31:42.062Z,101076.78
2023-03-28T16:34:10.290Z,101066.19
2023-03-28T16:36:38.322Z,101064.59
2023-03-28T16:39:06.314Z,101053.91
2023-03-28T16:41:33.850Z,101055.19
2023-03-28T16:44:02.775Z,101055.47
2023-03-28T16:46:30.360Z,101049.53
2023-03-28T16:48:57.931Z,101044.19
2023-03-28T16:51:25.654Z,101044.50
2023-03-28T16:53:53.194Z,101043.97
2023-03-28T16:56:20.795Z,101044.06
2023-03-28T16:58:48.425Z,101038.97
2023-03-28T17:01:19.329Z,101029.59
2023-03-28T17:03:47.255Z,101027.22
2023-03-28T17:06:16.174Z,101027.09
2023-03-28T17:08:44.177Z,101032.84
2023-03-28T17:11:12.943Z,101029.44
2023-03-28T17:13:41.241Z,101032.94
2023-03-28T17:16:09.311Z,101027.09
2023-03-28T17:18:38.312Z,101023.69
2023-03-28T17:21:06.925Z,101021.97
2023-03-28T17:23:34.894Z,101015.56
2023-03-28T17:26:03.238Z,101014.06
2023-03-28T17:28:31.478Z,101010.03
2023-03-28T17:30:59.057Z,101007.56
2023-03-28T17:33:29.384Z,101000.44
2023-03-28T17:35:58.305Z,101003.00
2023-03-28T17:38:25.867Z,100993.53
2023-03-28T17:40:53.405Z,100997.13
2023-03-28T17:43:20.950Z,100984.13
2023-03-28T17:45:53.606Z,100984.13
2023-03-28T17:48:21.859Z,100981.47
2023-03-28T17:50:52.066Z,100969.16
2023-03-28T17:53:20.980Z,100971.91
2023-03-28T17:55:48.824Z,100968.41
2023-03-28T17:58:16.397Z,100969.25
2023-03-28T18:00:43.987Z,100968.41
2023-03-28T18:03:11.751Z,100972.97
2023-03-28T18:05:39.407Z,100979.13
2023-03-28T18:08:06.902Z,100972.00
2023-03-28T18:10:35.797Z,100975.72
2023-03-28T18:13:03.318Z,100972.22
2023-03-28T18:15:30.851Z,100976.78
2023-03-28T18:18:01.695Z,100968.81
2023-03-28T18:20:29.631Z,100969.66
2023-03-28T18:22:57.203Z,100981.34
2023-03-28T18:25:24.775Z,100968.16
2023-03-28T18:27:53.641Z,100972.81
2023-03-28T18:30:21.103Z,100975.66
2023-03-28T18:32:48.583Z,100983.63
2023-03-28T18:35:16.259Z,100984.59
2023-03-28T18:37:43.801Z,100980.97
2023-03-28T18:40:11.708Z,100980.88
2023-03-28T18:42:39.227Z,100986.94
2023-03-28T18:45:08.941Z,100993.25
2023-03-28T18:47:37.991Z,100992.50
2023-03-28T18:50:06.407Z,100994.28
2023-03-28T18:52:33.964Z,100990.09
2023-03-28T18:55:01.545Z,100991.91
2023-03-28T18:57:29.121Z,100993.81
2023-03-28T18:59:56.947Z,100993.81
2023-03-28T19:02:26.608Z,100992.22
2023-03-28T19:04:54.208Z,100987.00
2023-03-28T19:07:21.928Z,100979.13
2023-03-28T19:09:49.436Z,100984.66
2023-03-28T19:12:17.018Z,100973.47
2023-03-28T19:14:44.550Z,100971.09
2023-03-28T19:17:12.198Z,100973.00
2023-03-28T19:19:41.091Z,100979.94
2023-03-28T19:22:09.550Z,100961.31
2023-03-28T19:24:37.410Z,100953.75
2023-03-28T19:27:05.609Z,100957.06
2023-03-28T19:29:33.294Z,100962.28
2023-03-28T19:32:00.949Z,100969.50
2023-03-28T19:34:29.100Z,100972.34
2023-03-28T19:36:58.000Z,100974.25
2023-03-28T19:39:25.505Z,100975.50
2023-03-28T19:41:54.125Z,100982.63
2023-03-28T19:44:21.694Z,100981.19
2023-03-28T19:46:49.255Z,100974.28
2023-03-28T19:49:17.276Z,100964.59
2023-03-28T19:51:44.784Z,100969.16
2023-03-28T19:54:13.648Z,100974.69
2023-03-28T19:56:41.955Z,100980.94
2023-03-28T19:59:09.438Z,100975.81
2023-03-28T20:01:37.091Z,100986.63
2023-03-28T20:04:05.085Z,100979.72
2023-03-28T20:06:32.647Z,100993.84
2023-03-28T20:09:00.192Z,101003.13
2023-03-28T20:11:29.359Z,101002.38
2023-03-28T20:13:56.966Z,101009.59
2023-03-28T20:16:24.553Z,101016.16
2023-03-28T20:18:54.691Z,101010.72
2023-03-28T20:21:22.235Z,101006.56
2023-03-28T20:23:50.791Z,100979.81
2023-03-28T20:26:19.368Z,100934.47
2023-03-28T20:28:50.008Z,100878.84
2023-03-28T20:31:18.423Z,100841.16
2023-03-28T20:33:46.248Z,100865.38
2023-03-28T20:36:13.793Z,100886.53
2023-03-28T20:38:41.529Z,100912.38
2023-03-28T20:41:11.226Z,100915.91
2023-03-28T20:43:40.777Z,100934.47
2023-03-28T20:46:09.830Z,100934.28
2023-03-28T20:48:37.328Z,100930.47
2023-03-28T20:51:05.843Z,100917.41
2023-03-28T20:53:34.779Z,100913.03
2023-03-28T20:56:03.382Z,100906.69
2023-03-28T20:58:31.646Z,100916.47
2023-03-28T21:01:00.417Z,100908.69
2023-03-28T21:03:39.378Z,100927.28
2023-03-28T21:06:07.809Z,100922.81
2023-03-28T21:08:36.344Z,100917.41
2023-03-28T21:11:04.113Z,100930.56
2023-03-28T21:13:31.737Z,100925.38
2023-03-28T21:15:59.703Z,100921.50
2023-03-28T21:18:27.974Z,100916.06
2023-03-28T21:20:57.060Z,100924.16
2023-03-28T21:23:24.550Z,100914.38
2023-03-28T21:25:52.830Z,100910.31
2023-03-28T21:28:20.454Z,100904.16
2023-03-28T21:30:56.831Z,100887.75
2023-03-28T21:33:24.610Z,100876.56
2023-03-28T21:35:52.842Z,100865.59
2023-03-28T21:38:21.934Z,100861.59
2023-03-28T21:40:49.453Z,100870.69
2023-03-28T21:43:17.177Z,100860.38
2023-03-28T21:45:45.169Z,100877.13
2023-03-28T21:48:12.937Z,100882.25
2023-03-28T21:50:40.749Z,100887.44
2023-03-28T21:53:09.158Z,100895.91
2023-03-28T21:55:38.260Z,100905.38
2023-03-28T21:58:05.759Z,100903.56
2023-03-28T22:00:33.980Z,100905.53
2023-03-28T22:03:01.703Z,100901.28
2023-03-28T22:05:30.050Z,100928.72
2023-03-28T22:07:58.870Z,100919.47
2023-03-28T22:10:27.024Z,100927.50
2023-03-28T22:12:58.892Z,100931.84
2023-03-28T22:15:26.824Z,100929.31
2023-03-28T22:17:59.092Z,100917.25
2023-03-28T22:20:27.426Z,100917.16
2023-03-28T22:22:55.049Z,100924.25
2023-03-28T22:25:23.519Z,100914.41
2023-03-28T22:27:52.830Z,100913.66
2023-03-28T22:30:21.758Z,100920.00
2023-03-28T22:32:49.284Z,100918.31
2023-03-28T22:35:16.803Z,100925.66
2023-03-28T22:37:44.360Z,100912.22
2023-03-28T22:40:12.351Z,100903.59
2023-03-28T22:42:40.007Z,100896.59
2023-03-28T22:45:07.931Z,100890.44
2023-03-28T22:47:39.410Z,100889.22
2023-03-28T22:50:08.888Z,100884.84
2023-03-28T22:52:38.198Z,100870.75
2023-03-28T22:55:06.400Z,100881.19
2023-03-28T22:57:34.176Z,100865.16
2023-03-28T23:00:02.050Z,100872.28
2023-03-28T23:02:29.676Z,100859.00
2023-03-28T23:04:58.675Z,100837.63
2023-03-28T23:07:27.149Z,100839.31
2023-03-28T23:09:54.715Z,100821.59
2023-03-28T23:12:22.271Z,100815.66
2023-03-28T23:14:50.239Z,100808.56
2023-03-28T23:17:19.005Z,100818.97
2023-03-28T23:19:50.237Z,100805.63
2023-03-28T23:22:19.209Z,100818.69
2023-03-28T23:24:47.032Z,100819.53
2023-03-28T23:27:14.506Z,100819.47
2023-03-28T23:29:42.106Z,100807.81
2023-03-28T23:32:09.536Z,100801.66
2023-03-28T23:34:37.360Z,100791.81
2023-03-28T23:37:04.928Z,100793.69
2023-03-28T23:39:33.913Z,100787.56
2023-03-28T23:42:01.552Z,100778.72
2023-03-28T23:44:29.061Z,100768.25
2023-03-28T23:46:57.689Z,100758.56
2023-03-28T23:49:25.260Z,100762.16
2023-03-28T23:51:52.921Z,100763.78
2023-03-28T23:54:20.567Z,100766.44
2023-03-28T23:56:49.513Z,100750.59
2023-03-28T23:59:17.059Z,100753.16
